createdAt,value
2023-04-15T00:01:06.950Z,96967.97
2023-04-15T00:03:41.509Z,96969.56
2023-04-15T00:06:14.832Z,96962.91
2023-04-15T00:08:48.036Z,96962.22
2023-04-15T00:11:21.073Z,96961.34
2023-04-15T00:13:54.429Z,96961.94
2023-04-15T00:16:28.425Z,96963.50
2023-04-15T00:19:03.043Z,96955.22
2023-04-15T00:21:36.485Z,96960.09
2023-04-15T00:24:09.498Z,96967.59
2023-04-15T00:26:42.591Z,96962.53
2023-04-15T00:29:15.687Z,96964.09
2023-04-15T00:31:48.731Z,96970.34
2023-04-15T00:34:23.226Z,96960.03
2023-04-15T00:36:56.395Z,96966.22
2023-04-15T00:39:29.658Z,96958.06
2023-04-15T00:42:03.409Z,96955.72
2023-04-15T00:44:36.420Z,96961.06
2023-04-15T00:47:10.154Z,96957.94
2023-04-15T00:49:44.528Z,96951.19
2023-04-15T00:52:17.532Z,96965.25
2023-04-15T00:54:51.262Z,96968.38
2023-04-15T00:57:24.452Z,96960.47
2023-04-15T00:59:58.369Z,96960.22
2023-04-15T01:02:33.460Z,96965.16
2023-04-15T01:05:08.757Z,96959.91
2023-04-15T01:07:41.788Z,96960.41
2023-04-15T01:10:14.894Z,96955.38
2023-04-15T01:12:48.035Z,96952.44
2023-04-15T01:15:21.926Z,96953.91
2023-04-15T01:17:55.245Z,96954.38
2023-04-15T01:20:30.829Z,96947.78
2023-04-15T01:23:04.012Z,96954.38
2023-04-15T01:25:38.409Z,96948.44
2023-04-15T01:28:11.849Z,96947.78
2023-04-15T01:30:44.838Z,96946.31
2023-04-15T01:33:17.849Z,96947.97
2023-04-15T01:35:50.940Z,96945.44
2023-04-15T01:38:24.049Z,96934.72
2023-04-15T01:40:59.264Z,96938.63
2023-04-15T01:43:32.426Z,96937.81
2023-04-15T01:46:06.194Z,96938.63
2023-04-15T01:48:39.200Z,96942.31
2023-04-15T01:51:12.297Z,96936.66
2023-04-15T01:53:45.493Z,96942.31
2023-04-15T01:56:19.868Z,96935.69
2023-04-15T01:58:52.933Z,96930.06
2023-04-15T02:01:25.998Z,96928.97
2023-04-15T02:03:59.071Z,96936.16
2023-04-15T02:06:32.132Z,96944.75
2023-04-15T02:09:05.152Z,96950.47
2023-04-15T02:11:39.556Z,96951.06
2023-04-15T02:14:12.712Z,96947.75
2023-04-15T02:16:45.810Z,96946.00
2023-04-15T02:19:18.911Z,96947.75
2023-04-15T02:21:51.932Z,96944.91
2023-04-15T02:24:24.992Z,96944.22
2023-04-15T02:26:59.414Z,96939.66
2023-04-15T02:29:33.362Z,96935.25
2023-04-15T02:32:07.257Z,96938.34
2023-04-15T02:34:41.280Z,96934.06
2023-04-15T02:37:16.046Z,96942.25
2023-04-15T02:39:49.097Z,96944.59
2023-04-15T02:42:23.514Z,96937.59
2023-04-15T02:44:57.253Z,96945.19
2023-04-15T02:47:30.321Z,96947.50
2023-04-15T02:50:04.641Z,96940.91
2023-04-15T02:52:37.634Z,96948.09
2023-04-15T02:55:11.602Z,96947.13
2023-04-15T02:57:46.123Z,96945.94
2023-04-15T03:00:19.265Z,96951.09
2023-04-15T03:02:56.534Z,96950.44
2023-04-15T03:05:30.055Z,96955.19
2023-04-15T03:08:03.182Z,96948.94
2023-04-15T03:10:36.288Z,96958.28
2023-04-15T03:13:10.741Z,96957.50
2023-04-15T03:15:43.913Z,96952.31
2023-04-15T03:18:16.960Z,96952.13
2023-04-15T03:20:50.053Z,96945.72
2023-04-15T03:23:23.064Z,96950.72
2023-04-15T03:25:57.766Z,96957.16
2023-04-15T03:28:32.729Z,96948.25
2023-04-15T03:31:05.922Z,96949.25
2023-04-15T03:33:38.973Z,96946.94
2023-04-15T03:36:12.134Z,96938.19
2023-04-15T03:38:45.166Z,96940.13
2023-04-15T03:41:18.209Z,96940.06
2023-04-15T03:43:52.810Z,96938.00
2023-04-15T03:46:25.856Z,96941.47
2023-04-15T03:48:59.973Z,96947.41
2023-04-15T03:51:33.278Z,96942.78
2023-04-15T03:54:06.356Z,96943.44
2023-04-15T03:56:39.502Z,96942.47
2023-04-15T03:59:13.896Z,96944.91
2023-04-15T04:01:47.028Z,96933.19
2023-04-15T04:04:20.212Z,96941.06
2023-04-15T04:06:53.559Z,96938.69
2023-04-15T04:09:26.783Z,96942.75
2023-04-15T04:11:59.955Z,96938.81
2023-04-15T04:14:34.327Z,96939.41
2023-04-15T04:17:07.490Z,96944.75
2023-04-15T04:19:40.960Z,96942.84
2023-04-15T04:22:13.997Z,96950.53
2023-04-15T04:24:46.999Z,96949.44
2023-04-15T04:27:20.017Z,96949.06
2023-04-15T04:29:54.345Z,96945.66
2023-04-15T04:32:27.438Z,96944.78
2023-04-15T04:35:00.583Z,96954.91
2023-04-15T04:37:33.673Z,96952.25
2023-04-15T04:40:09.498Z,96952.03
2023-04-15T04:42:42.550Z,96956.22
2023-04-15T04:45:16.956Z,96958.44
2023-04-15T04:47:50.048Z,96959.31
2023-04-15T04:50:23.119Z,96950.28
2023-04-15T04:52:56.440Z,96965.47
2023-04-15T04:55:29.757Z,96956.00
2023-04-15T04:58:02.746Z,96958.53
2023-04-15T05:00:37.964Z,96966.25
2023-04-15T05:03:11.160Z,96970.72
2023-04-15T05:05:45.852Z,96964.00
2023-04-15T05:08:18.900Z,96963.91
2023-04-15T05:10:51.976Z,96961.94
2023-04-15T05:13:25.054Z,96967.88
2023-04-15T05:15:59.916Z,96967.19
2023-04-15T05:18:33.096Z,96966.53
2023-04-15T05:21:07.704Z,96967.25
2023-04-15T05:23:41.270Z,96961.97
2023-04-15T05:26:14.325Z,96964.63
2023-04-15T05:28:47.887Z,96962.19
2023-04-15T05:31:22.551Z,96969.63
2023-04-15T05:33:55.745Z,96973.56
2023-04-15T05:36:28.810Z,96975.31
2023-04-15T05:39:02.036Z,96981.25
2023-04-15T05:41:35.301Z,96976.88
2023-04-15T05:44:08.395Z,96983.06
2023-04-15T05:46:43.342Z,96980.59
2023-04-15T05:49:16.487Z,96987.28
2023-04-15T05:51:49.777Z,96982.72
2023-04-15T05:54:23.184Z,96976.00
2023-04-15T05:56:57.560Z,96974.13
2023-04-15T05:59:31.055Z,96984.34
2023-04-15T06:02:06.371Z,96982.03
2023-04-15T06:04:39.683Z,96980.06
2023-04-15T06:07:12.800Z,96982.59
2023-04-15T06:09:45.907Z,96984.44
2023-04-15T06:12:18.971Z,96973.53
2023-04-15T06:14:52.200Z,96977.84
2023-04-15T06:17:26.733Z,96969.56
2023-04-15T06:20:00.037Z,96977.53
2023-04-15T06:22:33.083Z,96986.47
2023-04-15T06:25:09.388Z,96978.75
2023-04-15T06:27:42.660Z,96985.34
2023-04-15T06:30:15.707Z,96982.34
2023-04-15T06:32:50.217Z,96974.22
2023-04-15T06:35:23.352Z,96979.41
2023-04-15T06:37:56.730Z,96981.50
2023-04-15T06:40:29.868Z,96979.66
2023-04-15T06:43:03.019Z,96979.50
2023-04-15T06:45:36.285Z,96983.78
2023-04-15T06:48:10.705Z,96984.56
2023-04-15T06:50:43.892Z,96981.88
2023-04-15T06:53:17.387Z,96989.78
2023-04-15T06:55:50.473Z,96983.22
2023-04-15T06:58:23.507Z,96984.91
2023-04-15T07:00:57.360Z,96972.81
2023-04-15T07:03:32.880Z,96978.78
2023-04-15T07:06:06.862Z,96972.19
2023-04-15T07:08:39.920Z,96975.91
2023-04-15T07:11:13.134Z,96973.66
2023-04-15T07:13:46.616Z,96973.94
2023-04-15T07:16:19.972Z,96974.72
2023-04-15T07:18:54.321Z,96977.28
2023-04-15T07:21:27.690Z,96973.66
2023-04-15T07:24:00.890Z,96974.28
2023-04-15T07:26:33.914Z,96975.31
2023-04-15T07:29:07.174Z,96969.88
2023-04-15T07:31:42.218Z,96965.34
2023-04-15T07:34:17.140Z,96964.00
2023-04-15T07:36:50.625Z,96962.13
2023-04-15T07:39:23.690Z,96960.13
2023-04-15T07:41:56.934Z,96961.06
2023-04-15T07:44:30.026Z,96952.16
2023-04-15T07:47:04.156Z,96954.13
2023-04-15T07:49:38.549Z,96947.19
2023-04-15T07:52:11.572Z,96943.19
2023-04-15T07:54:44.757Z,96949.53
2023-04-15T07:57:18.438Z,96947.91
2023-04-15T07:59:51.421Z,96948.78
2023-04-15T08:02:24.564Z,96947.25
2023-04-15T08:04:59.745Z,96943.56
2023-04-15T08:07:33.012Z,96947.75
2023-04-15T08:10:07.214Z,96942.53
2023-04-15T08:12:40.609Z,96938.88
2023-04-15T08:15:14.096Z,96941.75
2023-04-15T08:17:47.330Z,96941.91
2023-04-15T08:20:21.898Z,96939.16
2023-04-15T08:22:55.040Z,96944.88
2023-04-15T08:25:28.308Z,96945.59
2023-04-15T08:28:07.114Z,96935.59
2023-04-15T08:30:40.209Z,96936.56
2023-04-15T08:33:13.276Z,96943.75
2023-04-15T08:35:48.162Z,96936.31
2023-04-15T08:38:21.201Z,96937.38
2023-04-15T08:40:54.287Z,96940.03
2023-04-15T08:43:30.671Z,96931.94
2023-04-15T08:46:05.712Z,96939.59
2023-04-15T08:48:40.635Z,96930.16
2023-04-15T08:51:16.335Z,96926.81
2023-04-15T08:53:50.882Z,96922.53
2023-04-15T08:56:27.663Z,96921.81
2023-04-15T08:59:01.168Z,96924.47
2023-04-15T09:01:34.568Z,96919.88
2023-04-15T09:04:08.326Z,96923.38
2023-04-15T09:06:42.806Z,96916.03
2023-04-15T09:09:15.890Z,96922.84
2023-04-15T09:11:49.980Z,96930.38
2023-04-15T09:14:23.066Z,96923.25
2023-04-15T09:17:00.845Z,96919.53
2023-04-15T09:19:34.661Z,96923.03
2023-04-15T09:22:09.117Z,96932.78
2023-04-15T09:24:43.407Z,96928.84
2023-04-15T09:27:17.826Z,96932.63
2023-04-15T09:29:51.801Z,96935.44
2023-04-15T09:32:25.026Z,96932.47
2023-04-15T09:34:58.093Z,96934.97
2023-04-15T09:37:37.765Z,96932.53
2023-04-15T09:40:12.037Z,96937.28
2023-04-15T09:42:57.569Z,96945.19
2023-04-15T09:45:31.001Z,96935.56
2023-04-15T09:48:18.760Z,96929.84
2023-04-15T09:50:53.915Z,96930.38
2023-04-15T09:53:31.607Z,96934.72
2023-04-15T09:56:07.849Z,96936.88
2023-04-15T09:58:42.514Z,96931.81
2023-04-15T10:01:15.607Z,96936.44
2023-04-15T10:03:49.021Z,96933.78
2023-04-15T10:06:23.192Z,96940.59
2023-04-15T10:08:58.439Z,96937.81
2023-04-15T10:11:32.857Z,96945.00
2023-04-15T10:14:07.352Z,96953.09
2023-04-15T10:16:43.464Z,96951.03
2023-04-15T10:19:17.704Z,96950.88
2023-04-15T10:21:52.051Z,96952.47
2023-04-15T10:24:27.082Z,96950.81
2023-04-15T10:27:01.249Z,96945.94
2023-04-15T10:29:34.310Z,96951.97
2023-04-15T10:32:07.852Z,96949.91
2023-04-15T10:34:41.744Z,96957.09
2023-04-15T10:37:14.803Z,96957.63
2023-04-15T10:39:49.375Z,96962.81
2023-04-15T10:42:22.626Z,96959.19
2023-04-15T10:44:58.437Z,96970.44
2023-04-15T10:47:33.926Z,96962.66
2023-04-15T10:50:08.590Z,96963.31
2023-04-15T10:52:42.712Z,96974.53
2023-04-15T10:55:22.265Z,96974.47
2023-04-15T10:58:00.800Z,96977.03
2023-04-15T11:00:35.675Z,96969.38
2023-04-15T11:03:10.637Z,96964.06
2023-04-15T11:05:52.433Z,96963.50
2023-04-15T11:08:58.857Z,96971.16
2023-04-15T11:12:08.841Z,96971.28
2023-04-15T11:14:43.307Z,96973.94
2023-04-15T11:17:16.487Z,96974.13
2023-04-15T11:19:49.552Z,96982.16
2023-04-15T11:22:22.805Z,96988.16
2023-04-15T11:24:55.845Z,96987.47
2023-04-15T11:27:32.626Z,96983.00
2023-04-15T11:30:21.187Z,96990.13
2023-04-15T11:32:56.792Z,96991.69
2023-04-15T11:35:30.587Z,96999.31
2023-04-15T11:38:05.316Z,96996.19
2023-04-15T11:40:39.833Z,97001.66
2023-04-15T11:43:17.087Z,97007.09
2023-04-15T11:45:55.589Z,97010.53
2023-04-15T11:48:31.733Z,97013.25
2023-04-15T11:51:06.517Z,97023.72
2023-04-15T11:53:43.066Z,97018.69
2023-04-15T11:56:20.212Z,97018.56
2023-04-15T11:58:57.326Z,97033.63
2023-04-15T12:01:35.082Z,97038.34
2023-04-15T12:04:13.767Z,97030.53
2023-04-15T12:06:47.454Z,97032.31
2023-04-15T12:09:21.072Z,97035.88
2023-04-15T12:11:58.801Z,97033.38
2023-04-15T12:14:34.640Z,97041.94
2023-04-15T12:17:08.082Z,97038.00
2023-04-15T12:19:43.171Z,97043.13
2023-04-15T12:22:17.943Z,97054.78
2023-04-15T12:24:57.765Z,97050.31
2023-04-15T12:27:32.405Z,97040.34
2023-04-15T12:30:08.948Z,97050.72
2023-04-15T12:32:43.531Z,97044.69
2023-04-15T12:35:16.842Z,97043.19
2023-04-15T12:37:49.828Z,97052.72
2023-04-15T12:40:22.892Z,97040.63
2023-04-15T12:42:56.542Z,97053.69
2023-04-15T12:45:31.700Z,97055.44
2023-04-15T12:48:04.849Z,97063.59
2023-04-15T12:50:37.898Z,97076.00
2023-04-15T12:53:11.003Z,97071.47
2023-04-15T12:55:44.053Z,97085.97
2023-04-15T12:58:17.065Z,97083.66
2023-04-15T13:00:52.806Z,97086.63
2023-04-15T13:03:25.987Z,97087.59
2023-04-15T13:05:59.209Z,97094.81
2023-04-15T13:08:32.254Z,97099.78
2023-04-15T13:11:05.931Z,97100.13
2023-04-15T13:13:38.986Z,97105.41
2023-04-15T13:16:13.440Z,97102.38
2023-04-15T13:18:47.021Z,97101.50
2023-04-15T13:21:20.817Z,97107.56
2023-04-15T13:23:54.039Z,97121.63
2023-04-15T13:26:27.214Z,97120.38
2023-04-15T13:29:01.936Z,97143.59
2023-04-15T13:31:36.495Z,97151.88
2023-04-15T13:34:09.644Z,97155.09
2023-04-15T13:36:42.693Z,97162.34
2023-04-15T13:39:15.679Z,97152.97
2023-04-15T13:41:49.326Z,97157.56
2023-04-15T13:44:22.436Z,97152.31
2023-04-15T13:46:56.800Z,97135.94
2023-04-15T13:49:30.505Z,97138.53
2023-04-15T13:52:03.571Z,97153.16
2023-04-15T13:54:37.925Z,97155.81
2023-04-15T13:57:11.280Z,97153.84
2023-04-15T13:59:45.031Z,97160.28
2023-04-15T14:02:19.439Z,97158.72
2023-04-15T14:04:52.525Z,97166.06
2023-04-15T14:07:25.803Z,97156.25
2023-04-15T14:09:58.829Z,97163.81
2023-04-15T14:12:31.901Z,97163.72
2023-04-15T14:15:06.003Z,97163.63
2023-04-15T14:17:42.321Z,97173.16
2023-04-15T14:20:17.156Z,97180.75
2023-04-15T14:22:50.438Z,97176.16
2023-04-15T14:25:33.325Z,97193.13
2023-04-15T14:28:07.028Z,97190.16
2023-04-15T14:30:40.086Z,97189.81
2023-04-15T14:33:14.490Z,97197.56
2023-04-15T14:35:47.601Z,97207.47
2023-04-15T14:38:22.638Z,97202.81
2023-04-15T14:40:55.758Z,97211.31
2023-04-15T14:43:28.813Z,97210.63
2023-04-15T14:46:02.188Z,97222.16
2023-04-15T14:48:36.763Z,97215.38
2023-04-15T14:51:09.949Z,97216.41
2023-04-15T14:53:43.069Z,97221.91
2023-04-15T14:56:16.229Z,97233.91
2023-04-15T14:58:49.400Z,97229.09
2023-04-15T15:01:22.619Z,97230.59
2023-04-15T15:03:57.267Z,97242.66
2023-04-15T15:06:30.338Z,97248.22
2023-04-15T15:09:03.758Z,97250.75
2023-04-15T15:11:37.047Z,97254.78
2023-04-15T15:14:10.304Z,97250.34
2023-04-15T15:16:43.414Z,97264.84
2023-04-15T15:19:17.879Z,97264.59
2023-04-15T15:21:50.908Z,97263.41
2023-04-15T15:24:23.983Z,97270.13
2023-04-15T15:26:57.141Z,97276.34
2023-04-15T15:29:30.330Z,97276.16
2023-04-15T15:32:03.319Z,97285.94
2023-04-15T15:34:37.714Z,97277.16
2023-04-15T15:37:10.772Z,97291.47
2023-04-15T15:39:43.784Z,97292.16
2023-04-15T15:42:16.843Z,97303.25
2023-04-15T15:44:52.810Z,97309.91
2023-04-15T15:47:26.772Z,97309.19
2023-04-15T15:50:02.696Z,97311.38
2023-04-15T15:52:37.286Z,97318.28
2023-04-15T15:55:10.675Z,97331.16
2023-04-15T15:57:43.873Z,97332.22
2023-04-15T16:00:17.372Z,97339.03
2023-04-15T16:03:06.142Z,97344.44
2023-04-15T16:05:41.392Z,97343.06
2023-04-15T16:08:14.413Z,97349.47
2023-04-15T16:10:47.567Z,97344.50
2023-04-15T16:13:20.634Z,97354.03
2023-04-15T16:15:53.635Z,97357.13
2023-04-15T16:18:26.657Z,97363.25
2023-04-15T16:21:01.147Z,97367.09
2023-04-15T16:23:35.084Z,97378.78
2023-04-15T16:26:08.134Z,97381.88
2023-04-15T16:28:41.222Z,97385.09
2023-04-15T16:31:14.304Z,97391.78
2023-04-15T16:33:47.358Z,97390.81
2023-04-15T16:36:21.794Z,97401.13
2023-04-15T16:38:54.965Z,97399.50
2023-04-15T16:41:27.985Z,97397.81
2023-04-15T16:44:01.274Z,97402.75
2023-04-15T16:46:34.347Z,97408.47
2023-04-15T16:49:07.353Z,97414.38
2023-04-15T16:51:41.753Z,97409.91
2023-04-15T16:54:14.804Z,97416.06
2023-04-15T16:56:47.889Z,97410.69
2023-04-15T16:59:20.901Z,97419.00
2023-04-15T17:01:54.904Z,97424.09
2023-04-15T17:04:29.638Z,97419.00
2023-04-15T17:07:04.828Z,97422.75
2023-04-15T17:09:39.531Z,97434.94
2023-04-15T17:12:12.600Z,97433.03
2023-04-15T17:14:45.673Z,97432.88
2023-04-15T17:17:20.662Z,97437.41
2023-04-15T17:19:53.745Z,97437.34
2023-04-15T17:22:29.074Z,97443.84
2023-04-15T17:25:02.119Z,97449.22
2023-04-15T17:27:35.235Z,97458.38
2023-04-15T17:30:10.103Z,97458.72
2023-04-15T17:32:43.277Z,97463.66
2023-04-15T17:35:16.483Z,97463.50
2023-04-15T17:37:50.904Z,97464.19
2023-04-15T17:40:24.104Z,97472.28
2023-04-15T17:42:57.411Z,97469.06
2023-04-15T17:45:31.258Z,97470.28
2023-04-15T17:48:04.551Z,97475.41
2023-04-15T17:50:38.480Z,97475.94
2023-04-15T17:53:12.875Z,97476.72
2023-04-15T17:55:46.420Z,97476.34
2023-04-15T17:58:19.503Z,97482.00
2023-04-15T18:00:52.541Z,97487.00
2023-04-15T18:03:26.303Z,97487.28
2023-04-15T18:06:00.688Z,97488.69
2023-04-15T18:08:35.131Z,97494.31
2023-04-15T18:11:08.876Z,97493.16
2023-04-15T18:13:43.583Z,97496.56
2023-04-15T18:16:17.153Z,97500.63
2023-04-15T18:18:50.247Z,97511.34
2023-04-15T18:21:23.283Z,97511.34
2023-04-15T18:23:57.664Z,97523.09
2023-04-15T18:26:30.737Z,97520.56
2023-04-15T18:29:03.841Z,97524.88
2023-04-15T18:31:36.987Z,97524.19
2023-04-15T18:34:10.165Z,97538.03
2023-04-15T18:36:43.206Z,97533.13
2023-04-15T18:39:17.678Z,97538.94
2023-04-15T18:41:50.709Z,97548.06
2023-04-15T18:44:23.944Z,97552.00
2023-04-15T18:46:57.021Z,97564.75
2023-04-15T18:49:30.911Z,97564.16
2023-04-15T18:52:04.103Z,97563.34
2023-04-15T18:54:38.911Z,97566.19
2023-04-15T18:57:12.003Z,97571.88
2023-04-15T18:59:45.149Z,97577.06
2023-04-15T19:02:18.274Z,97585.91
2023-04-15T19:04:51.388Z,97581.25
2023-04-15T19:07:24.909Z,97591.28
2023-04-15T19:09:59.329Z,97603.78
2023-04-15T19:12:32.419Z,97597.31
2023-04-15T19:15:06.249Z,97600.94
2023-04-15T19:17:39.631Z,97606.56
2023-04-15T19:20:13.084Z,97612.75
2023-04-15T19:22:46.131Z,97612.84
2023-04-15T19:25:20.731Z,97619.63
2023-04-15T19:27:53.831Z,97623.63
2023-04-15T19:30:26.981Z,97634.59
2023-04-15T19:33:00.073Z,97621.00
2023-04-15T19:35:33.303Z,97628.91
2023-04-15T19:38:06.513Z,97631.06
2023-04-15T19:40:40.876Z,97631.88
2023-04-15T19:43:13.916Z,97627.84
2023-04-15T19:45:49.303Z,97629.50
2023-04-15T19:48:26.024Z,97628.34
2023-04-15T19:50:59.841Z,97629.88
2023-04-15T19:53:32.838Z,97631.53
2023-04-15T19:56:07.424Z,97632.22
2023-04-15T19:58:40.470Z,97631.28
2023-04-15T20:01:13.832Z,97625.19
2023-04-15T20:03:47.372Z,97629.69
2023-04-15T20:06:21.451Z,97627.25
2023-04-15T20:08:54.498Z,97634.78
2023-04-15T20:12:05.109Z,97634.78
2023-04-15T20:14:22.881Z,97634.88
2023-04-15T20:16:56.145Z,97635.19
2023-04-15T20:19:29.189Z,97625.91
2023-04-15T20:22:02.327Z,97623.16
2023-04-15T20:24:35.360Z,97624.50
2023-04-15T20:27:09.761Z,97627.63
2023-04-15T20:29:42.794Z,97639.22
2023-04-15T20:32:15.817Z,97640.59
2023-04-15T20:34:49.277Z,97637.25
2023-04-15T20:37:22.421Z,97640.88
2023-04-15T20:39:55.475Z,97645.38
2023-04-15T20:42:33.481Z,97650.28
2023-04-15T20:45:08.363Z,97648.50
2023-04-15T20:47:41.558Z,97644.41
2023-04-15T20:50:14.750Z,97649.59
2023-04-15T20:52:47.826Z,97651.66
2023-04-15T20:55:21.056Z,97649.78
2023-04-15T20:57:56.959Z,97652.22
2023-04-15T21:00:31.071Z,97657.44
2023-04-15T21:03:05.106Z,97662.59
2023-04-15T21:05:38.268Z,97661.53
2023-04-15T21:08:11.756Z,97660.84
2023-04-15T21:10:44.816Z,97656.81
2023-04-15T21:13:19.185Z,97659.16
2023-04-15T21:15:54.102Z,97659.28
2023-04-15T21:18:27.260Z,97666.13
2023-04-15T21:21:02.007Z,97669.28
2023-04-15T21:23:36.016Z,97667.69
2023-04-15T21:26:09.479Z,97677.00
2023-04-15T21:28:43.863Z,97677.31
2023-04-15T21:31:17.012Z,97684.75
2023-04-15T21:33:50.076Z,97679.66
2023-04-15T21:36:23.120Z,97677.88
2023-04-15T21:38:56.136Z,97687.19
2023-04-15T21:41:29.239Z,97684.56
2023-04-15T21:44:03.917Z,97686.50
2023-04-15T21:46:37.007Z,97688.06
2023-04-15T21:49:12.352Z,97694.75
2023-04-15T21:51:46.356Z,97694.63
2023-04-15T21:54:19.496Z,97705.69
2023-04-15T21:56:52.499Z,97697.28
2023-04-15T21:59:27.220Z,97703.34
2023-04-15T22:02:00.480Z,97704.94
2023-04-15T22:04:33.571Z,97704.81
2023-04-15T22:07:06.608Z,97709.91
2023-04-15T22:09:39.648Z,97707.38
2023-04-15T22:12:12.755Z,97711.47
2023-04-15T22:14:47.172Z,97709.72
2023-04-15T22:17:20.193Z,97720.88
2023-04-15T22:19:53.205Z,97713.34
2023-04-15T22:22:27.407Z,97712.47
2023-04-15T22:25:16.877Z,97713.34
2023-04-15T22:27:50.054Z,97716.88
2023-04-15T22:30:24.822Z,97722.75
2023-04-15T22:32:57.834Z,97727.06
2023-04-15T22:35:30.845Z,97720.22
2023-04-15T22:38:04.721Z,97727.63
2023-04-15T22:40:37.790Z,97726.84
2023-04-15T22:43:10.796Z,97738.97
2023-04-15T22:45:50.871Z,97729.00
2023-04-15T22:48:24.190Z,97726.56
2023-04-15T22:50:57.233Z,97732.75
2023-04-15T22:53:30.317Z,97735.22
2023-04-15T22:56:03.549Z,97735.22
2023-04-15T22:58:36.586Z,97732.88
2023-04-15T23:01:11.184Z,97741.56
2023-04-15T23:03:57.155Z,97740.09
2023-04-15T23:06:37.524Z,97740.00
2023-04-15T23:09:10.995Z,97740.00
2023-04-15T23:11:44.270Z,97739.91
2023-04-15T23:14:17.289Z,97741.88
2023-04-15T23:16:51.630Z,97749.69
2023-04-15T23:19:24.960Z,97750.38
2023-04-15T23:21:58.055Z,97755.47
2023-04-15T23:24:31.075Z,97749.59
2023-04-15T23:27:04.177Z,97752.13
2023-04-15T23:29:37.226Z,97753.69
2023-04-15T23:32:11.610Z,97751.25
2023-04-15T23:34:44.663Z,97759.91
2023-04-15T23:37:18.947Z,97759.19
2023-04-15T23:39:52.211Z,97767.81
2023-04-15T23:42:25.950Z,97759.41
2023-04-15T23:44:59.059Z,97759.41
2023-04-15T23:47:33.463Z,97761.34
2023-04-15T23:50:08.593Z,97760.16
2023-04-15T23:52:41.604Z,97760.16
2023-04-15T23:55:14.756Z,97757.63
2023-04-15T23:57:48.149Z,97756.75
